Sand Pass, Nevada
Current Conditions -  °F | °C
As of 12:55 PM on Thursday 23 Oct 2014 (Local Time) from KRTS Reporting Station
Clear Clear  
Wind Chill: 68°   Ceiling: Unl
Heat Index: 68°   Visibility: 10mi
Dew Point: 27°   Wind: 16mph
Humidity: 21%   Direction: 250°WSW
Pressure: 30.1"   Gusts: 23mph
Location:  39.8171°N, 119.63°W
Report Text: KRTS 231955Z AUTO 25014G20KT 10SM CLR 20/M03 A3010 RMK AO2
Loading
Personal Weather Stations






























Interactive Weather Map
Tropical Storm Tracking
New forecast layout! Learn more

10-Day Weather Forecast

Advertisements
Track Severe Weather on mobile